Shinkai Maru — JJ4012 — position and weather

sailwx.info

Track history (hours):
 
Tides and Currents Weather Stations Pressure Air Temp Water Temp Dewpoint Dewpoint Depression Visibility Wind Speed Wind Dir Waves Ship Positions

Shinkai Maru

Last reported at 2016-Aug-26 11:33 UTC. Time now 2016-Aug-30 18:50 UTC.
Position N 35°11' E 139°45'.

Length 76 m; draft 4.1 m.

Type: Cargo ship. MMSI: 431301346.

Date/timePositionNaut miles runAvg speedWind from/ knotsBaromVisibWave heightAir tempDewpointWater temp
2016-Aug-26 11:33N 35°11' E 139°45'1111.0
2016-Aug-26 10:33N 35°22' E 139°42'1110.6
2016-Aug-26 09:33N 35°30' E 139°51'1110.8
2016-Aug-26 08:33N 35°39' E 139°58'2 2.1
2016-Aug-26 07:34N 35°41' E 139°57'0 0.0
2016-Aug-26 06:33N 35°41' E 139°57'0 0.1
2016-Aug-26 04:31N 35°41' E 139°58'0 0.0
2016-Aug-26 03:25N 35°41' E 139°58'0 0.0
2016-Aug-26 02:31N 35°41' E 139°58'0 0.0
2016-Aug-26 01:25N 35°41' E 139°58'0 0.0
2016-Aug-26 00:31N 35°41' E 139°58'0 0.0
2016-Aug-25 23:25N 35°41' E 139°58'0 0.0
2016-Aug-25 22:31N 35°41' E 139°58'0 0.0
2016-Aug-25 21:19N 35°41' E 139°58'0 0.0
2016-Aug-25 20:31N 35°41' E 139°58'0 0.0
2016-Aug-25 19:31N 35°41' E 139°58'0 0.0
2016-Aug-25 18:31N 35°41' E 139°58'0 0.0
2016-Aug-25 17:31N 35°41' E 139°58'0 0.0
2016-Aug-25 16:31N 35°41' E 139°58'0 0.0
2016-Aug-25 15:31N 35°41' E 139°58'0 0.0
2016-Aug-25 14:31N 35°41' E 139°58'0 0.0
2016-Aug-25 12:25N 35°41' E 139°58'0 0.0
2016-Aug-25 11:31N 35°41' E 139°58'0 0.0
2016-Aug-25 10:31N 35°41' E 139°58'0 0.0
2016-Aug-25 09:25N 35°41' E 139°58'0 0.0
2016-Aug-25 08:25N 35°41' E 139°58'0 0.0
2016-Aug-25 07:31N 35°41' E 139°58'0 0.0
2016-Aug-25 06:31N 35°41' E 139°58'0 0.0
2016-Aug-25 04:31N 35°41' E 139°58'0 0.0
2016-Aug-25 03:31N 35°41' E 139°58'0 0.0
2016-Aug-25 02:31N 35°41' E 139°58'1 1.3
2016-Aug-25 01:33N 35°39' E 139°58'1111.3
2016-Aug-25 00:33N 35°29' E 139°52'1211.7
2016-Aug-24 23:33N 35°19' E 139°44'1111.2
2016-Aug-24 22:33N 35°08' E 139°46'239 9.2
2016-Aug-23 20:33N 34°24' E 134°59'1312.9
2016-Aug-23 19:34N 34°36' E 135°02'7 0.5
2016-Aug-23 06:31N 34°37' E 134°54'1010.4
2016-Aug-23 05:33N 34°34' E 135°05'2512.2
2016-Aug-23 03:33N 34°10' E 135°01'  
2016-Aug-18 22:07N 34°24' E 135°01'711.7
2016-Aug-18 21:32N 34°31' E 135°03'9 8.4
2016-Aug-18 20:31N 34°36' E 134°55'1 0.1
2016-Aug-18 06:29N 34°38' E 134°54'8 8.9
2016-Aug-18 05:32N 34°36' E 135°04'5 4.4
2016-Aug-18 04:31N 34°38' E 135°09'0 0.0
2016-Aug-18 03:31N 34°38' E 135°09'6 6.4
2016-Aug-18 02:33N 34°32' E 135°06'2311.4
2016-Aug-18 00:33N 34°10' E 134°60'  
Track history (hours):
 
Tides and Currents Weather Stations Pressure Air Temp Water Temp Dewpoint Dewpoint Depression Visibility Wind Speed Wind Dir Waves Ship Positions

Shinkai Maru

Last reported at 2016-Aug-26 11:33 UTC. Time now 2016-Aug-30 18:50 UTC.
Position N 35°11' E 139°45'.

Length 76 m; draft 4.1 m.

Type: Cargo ship. MMSI: 431301346.

Date/timePositionNaut miles runAvg speedWind from/ knotsBaromVisibWave heightAir tempDewpointWater temp
2016-Aug-26 11:33N 35°11' E 139°45'1111.0
2016-Aug-26 10:33N 35°22' E 139°42'1110.6
2016-Aug-26 09:33N 35°30' E 139°51'1110.8
2016-Aug-26 08:33N 35°39' E 139°58'2 2.1
2016-Aug-26 07:34N 35°41' E 139°57'0 0.0
2016-Aug-26 06:33N 35°41' E 139°57'0 0.1
2016-Aug-26 04:31N 35°41' E 139°58'0 0.0
2016-Aug-26 03:25N 35°41' E 139°58'0 0.0
2016-Aug-26 02:31N 35°41' E 139°58'0 0.0
2016-Aug-26 01:25N 35°41' E 139°58'0 0.0
2016-Aug-26 00:31N 35°41' E 139°58'0 0.0
2016-Aug-25 23:25N 35°41' E 139°58'0 0.0
2016-Aug-25 22:31N 35°41' E 139°58'0 0.0
2016-Aug-25 21:19N 35°41' E 139°58'0 0.0
2016-Aug-25 20:31N 35°41' E 139°58'0 0.0
2016-Aug-25 19:31N 35°41' E 139°58'0 0.0
2016-Aug-25 18:31N 35°41' E 139°58'0 0.0
2016-Aug-25 17:31N 35°41' E 139°58'0 0.0
2016-Aug-25 16:31N 35°41' E 139°58'0 0.0
2016-Aug-25 15:31N 35°41' E 139°58'0 0.0
2016-Aug-25 14:31N 35°41' E 139°58'0 0.0
2016-Aug-25 12:25N 35°41' E 139°58'0 0.0
2016-Aug-25 11:31N 35°41' E 139°58'0 0.0
2016-Aug-25 10:31N 35°41' E 139°58'0 0.0
2016-Aug-25 09:25N 35°41' E 139°58'0 0.0
2016-Aug-25 08:25N 35°41' E 139°58'0 0.0
2016-Aug-25 07:31N 35°41' E 139°58'0 0.0
2016-Aug-25 06:31N 35°41' E 139°58'0 0.0
2016-Aug-25 04:31N 35°41' E 139°58'0 0.0
2016-Aug-25 03:31N 35°41' E 139°58'0 0.0
2016-Aug-25 02:31N 35°41' E 139°58'1 1.3
2016-Aug-25 01:33N 35°39' E 139°58'1111.3
2016-Aug-25 00:33N 35°29' E 139°52'1211.7
2016-Aug-24 23:33N 35°19' E 139°44'1111.2
2016-Aug-24 22:33N 35°08' E 139°46'239 9.2
2016-Aug-23 20:33N 34°24' E 134°59'1312.9
2016-Aug-23 19:34N 34°36' E 135°02'7 0.5
2016-Aug-23 06:31N 34°37' E 134°54'1010.4
2016-Aug-23 05:33N 34°34' E 135°05'2512.2
2016-Aug-23 03:33N 34°10' E 135°01'  
2016-Aug-18 22:07N 34°24' E 135°01'711.7
2016-Aug-18 21:32N 34°31' E 135°03'9 8.4
2016-Aug-18 20:31N 34°36' E 134°55'1 0.1
2016-Aug-18 06:29N 34°38' E 134°54'8 8.9
2016-Aug-18 05:32N 34°36' E 135°04'5 4.4
2016-Aug-18 04:31N 34°38' E 135°09'0 0.0
2016-Aug-18 03:31N 34°38' E 135°09'6 6.4
2016-Aug-18 02:33N 34°32' E 135°06'2311.4
2016-Aug-18 00:33N 34°10' E 134°60'  

Dump ship's entire track history